createdAt,value
2022-09-04T00:02:31.376Z,33.55
2022-09-04T00:05:38.403Z,33.13
2022-09-04T00:08:42.976Z,32.85
2022-09-04T00:11:35.746Z,32.65
2022-09-04T00:14:10.749Z,32.50
2022-09-04T00:16:58.848Z,32.32
2022-09-04T00:19:28.940Z,32.13
2022-09-04T00:22:04.051Z,32.07
2022-09-04T00:24:38.462Z,31.95
2022-09-04T00:27:12.293Z,31.95
2022-09-04T00:29:52.042Z,31.85
2022-09-04T00:32:29.084Z,31.91
2022-09-04T00:35:21.892Z,32.00
2022-09-04T00:37:53.570Z,32.07
2022-09-04T00:40:48.018Z,31.99
2022-09-04T00:43:49.506Z,31.91
2022-09-04T00:46:46.586Z,31.82
2022-09-04T00:49:42.315Z,31.80
2022-09-04T00:52:19.179Z,31.65
2022-09-04T00:55:08.239Z,31.69
2022-09-04T00:58:07.684Z,31.61
2022-09-04T01:00:37.125Z,31.64
2022-09-04T01:03:14.895Z,31.72
2022-09-04T01:05:46.906Z,31.69
2022-09-04T01:08:37.199Z,31.64
2022-09-04T01:11:22.993Z,31.68
2022-09-04T01:14:07.144Z,31.78
2022-09-04T01:16:56.530Z,31.76
2022-09-04T01:19:58.512Z,31.66
2022-09-04T01:22:48.100Z,31.58
2022-09-04T01:25:49.226Z,31.53
2022-09-04T01:28:22.419Z,31.48
2022-09-04T01:31:17.861Z,31.47
2022-09-04T01:34:11.408Z,31.34
2022-09-04T01:37:02.642Z,31.19
2022-09-04T01:39:33.107Z,31.31
2022-09-04T01:42:18.690Z,31.37
2022-09-04T01:44:49.791Z,31.25
2022-09-04T01:47:33.305Z,31.27
2022-09-04T01:50:17.191Z,31.18
2022-09-04T01:52:58.569Z,31.21
2022-09-04T01:55:44.787Z,31.01
2022-09-04T01:58:49.713Z,30.69
2022-09-04T02:01:34.848Z,30.82
2022-09-04T02:04:17.678Z,30.32
2022-09-04T02:06:48.464Z,30.05
2022-09-04T02:09:45.769Z,30.01
2022-09-04T02:12:34.913Z,30.43
2022-09-04T02:15:24.097Z,30.43
2022-09-04T02:18:06.991Z,30.36
2022-09-04T02:20:35.509Z,30.34
2022-09-04T02:23:25.182Z,30.18
2022-09-04T02:26:08.569Z,30.06
2022-09-04T02:29:05.470Z,30.05
2022-09-04T02:31:51.749Z,29.91
2022-09-04T02:34:37.991Z,29.79
2022-09-04T02:37:29.795Z,29.65
2022-09-04T02:40:18.689Z,29.59
2022-09-04T02:43:20.275Z,29.52
2022-09-04T02:46:10.217Z,29.56
2022-09-04T02:48:56.843Z,29.44
2022-09-04T02:51:49.505Z,29.00
2022-09-04T02:54:47.729Z,29.10
2022-09-04T02:57:40.516Z,28.93
2022-09-04T03:00:10.996Z,28.97
2022-09-04T03:03:04.550Z,28.77
2022-09-04T03:05:36.556Z,28.68
2022-09-04T03:08:23.159Z,28.76
2022-09-04T03:11:04.441Z,28.83
2022-09-04T03:13:41.648Z,28.70
2022-09-04T03:16:25.776Z,28.61
2022-09-04T03:19:08.459Z,28.52
2022-09-04T03:22:13.727Z,27.98
2022-09-04T03:25:18.718Z,27.73
2022-09-04T03:27:50.424Z,27.59
2022-09-04T03:30:19.074Z,27.74
2022-09-04T03:33:14.078Z,27.54
2022-09-04T03:35:54.325Z,27.39
2022-09-04T03:38:41.809Z,26.84
2022-09-04T03:41:40.807Z,27.87
2022-09-04T03:44:24.441Z,28.19
2022-09-04T03:46:58.471Z,28.20
2022-09-04T03:50:11.269Z,28.03
2022-09-04T03:53:06.039Z,27.94
2022-09-04T03:55:58.275Z,27.94
2022-09-04T03:58:47.378Z,27.85
2022-09-04T04:01:42.711Z,27.85
2022-09-04T04:04:42.776Z,27.86
2022-09-04T04:07:19.731Z,27.90
2022-09-04T04:10:14.912Z,27.99
2022-09-04T04:12:44.202Z,27.71
2022-09-04T04:15:48.967Z,27.79
2022-09-04T04:18:34.655Z,27.84
2022-09-04T04:21:21.466Z,27.57
2022-09-04T04:24:34.285Z,27.61
2022-09-04T04:27:32.940Z,27.56
2022-09-04T04:30:14.320Z,27.55
2022-09-04T04:33:06.801Z,26.86
2022-09-04T04:35:43.516Z,26.49
2022-09-04T04:38:30.715Z,26.19
2022-09-04T04:41:12.910Z,26.03
2022-09-04T04:44:12.803Z,26.32
2022-09-04T04:47:04.533Z,26.80
2022-09-04T04:49:38.518Z,26.40
2022-09-04T04:52:12.016Z,25.80
2022-09-04T04:54:53.315Z,25.57
2022-09-04T04:57:24.307Z,24.86
2022-09-04T05:00:17.044Z,25.07
2022-09-04T05:02:57.228Z,24.80
2022-09-04T05:05:48.001Z,24.70
2022-09-04T05:08:40.398Z,24.42
2022-09-04T05:11:36.148Z,24.16
2022-09-04T05:14:27.559Z,23.59
2022-09-04T05:17:21.358Z,23.32
2022-09-04T05:20:07.779Z,23.31
2022-09-04T05:22:51.183Z,23.16
2022-09-04T05:25:40.362Z,23.46
2022-09-04T05:28:20.352Z,23.52
2022-09-04T05:30:57.499Z,23.74
2022-09-04T05:33:49.862Z,23.80
2022-09-04T05:36:26.675Z,23.65
2022-09-04T05:39:25.138Z,23.73
2022-09-04T05:42:15.052Z,23.31
2022-09-04T05:45:03.533Z,23.20
2022-09-04T05:47:55.927Z,23.91
2022-09-04T05:50:57.131Z,24.10
2022-09-04T05:53:49.344Z,22.97
2022-09-04T05:56:55.701Z,22.57
2022-09-04T05:59:38.017Z,22.32
2022-09-04T06:02:37.620Z,22.55
2022-09-04T06:05:14.608Z,22.29
2022-09-04T06:08:24.053Z,21.96
2022-09-04T06:11:31.593Z,21.90
2022-09-04T06:14:32.876Z,21.85
2022-09-04T06:17:27.257Z,21.96
2022-09-04T06:20:07.250Z,21.88
2022-09-04T06:23:05.815Z,21.74
2022-09-04T06:26:05.944Z,21.72
2022-09-04T06:28:39.938Z,21.65
2022-09-04T06:31:10.554Z,21.88
2022-09-04T06:33:38.539Z,21.96
2022-09-04T06:36:18.508Z,21.65
2022-09-04T06:39:13.712Z,21.63
2022-09-04T06:42:14.080Z,22.11
2022-09-04T06:45:16.993Z,21.84
2022-09-04T06:48:00.680Z,21.39
2022-09-04T06:50:53.208Z,21.48
2022-09-04T06:53:41.171Z,21.32
2022-09-04T06:57:04.387Z,21.04
2022-09-04T07:00:04.586Z,21.20
2022-09-04T07:02:35.609Z,21.13
2022-09-04T07:05:36.795Z,21.60
2022-09-04T07:08:22.619Z,21.22
2022-09-04T07:11:18.302Z,20.42
2022-09-04T07:14:07.002Z,20.54
2022-09-04T07:16:40.716Z,20.11
2022-09-04T07:19:45.592Z,20.13
2022-09-04T07:22:43.601Z,20.57
2022-09-04T07:25:25.323Z,20.97
2022-09-04T07:28:14.268Z,20.45
2022-09-04T07:31:05.706Z,20.46
2022-09-04T07:33:39.613Z,20.08
2022-09-04T07:36:36.677Z,20.05
2022-09-04T07:39:30.118Z,19.90
2022-09-04T07:42:24.227Z,19.92
2022-09-04T07:45:22.512Z,19.53
2022-09-04T07:48:14.475Z,19.60
2022-09-04T07:50:58.322Z,19.69
2022-09-04T07:53:45.792Z,19.89
2022-09-04T07:56:47.884Z,19.86
2022-09-04T07:59:43.633Z,19.72
2022-09-04T08:02:42.862Z,19.73
2022-09-04T08:05:27.467Z,19.14
2022-09-04T08:08:10.443Z,19.11
2022-09-04T08:11:05.628Z,19.06
2022-09-04T08:14:10.675Z,19.06
2022-09-04T08:16:38.214Z,19.09
2022-09-04T08:19:34.789Z,19.07
2022-09-04T08:22:03.610Z,19.02
2022-09-04T08:24:50.517Z,18.52
2022-09-04T08:27:44.193Z,18.67
2022-09-04T08:30:15.170Z,18.32
2022-09-04T08:32:46.130Z,18.18
2022-09-04T08:35:25.865Z,18.05
2022-09-04T08:38:18.782Z,18.18
2022-09-04T08:41:05.586Z,18.36
2022-09-04T08:44:04.083Z,17.56
2022-09-04T08:47:09.047Z,17.70
2022-09-04T08:49:57.870Z,17.78
2022-09-04T08:53:01.841Z,18.12
2022-09-04T08:56:08.619Z,18.18
2022-09-04T08:59:07.709Z,17.76
2022-09-04T09:02:12.429Z,17.90
2022-09-04T09:05:11.008Z,17.81
2022-09-04T09:07:53.698Z,18.12
2022-09-04T09:10:56.795Z,18.01
2022-09-04T09:13:53.758Z,18.22
2022-09-04T09:17:05.902Z,18.28
2022-09-04T09:19:45.936Z,18.09
2022-09-04T09:22:41.575Z,17.95
2022-09-04T09:25:23.482Z,17.83
2022-09-04T09:28:48.052Z,17.79
2022-09-04T09:31:50.751Z,17.83
2022-09-04T09:34:27.161Z,17.40
2022-09-04T09:37:32.256Z,17.39
2022-09-04T09:39:59.918Z,17.26
2022-09-04T09:42:47.742Z,17.46
2022-09-04T09:45:42.329Z,17.31
2022-09-04T09:48:22.637Z,17.32
2022-09-04T09:51:23.583Z,17.28
2022-09-04T09:54:13.138Z,17.41
2022-09-04T09:56:59.347Z,17.41
2022-09-04T09:59:31.037Z,17.37
2022-09-04T10:02:22.730Z,17.41
2022-09-04T10:05:09.195Z,18.01
2022-09-04T10:08:36.137Z,17.57
2022-09-04T10:11:16.295Z,16.77
2022-09-04T10:13:59.468Z,16.71
2022-09-04T10:16:42.349Z,16.83
2022-09-04T10:19:47.360Z,17.10
2022-09-04T10:22:33.565Z,16.79
2022-09-04T10:25:29.720Z,16.72
2022-09-04T10:28:30.769Z,16.45
2022-09-04T10:31:08.048Z,16.70
2022-09-04T10:34:01.796Z,16.44
2022-09-04T10:36:43.369Z,16.40
2022-09-04T10:39:31.787Z,16.46
2022-09-04T10:42:09.953Z,16.57
2022-09-04T10:45:01.920Z,16.84
2022-09-04T10:48:10.921Z,17.23
2022-09-04T10:51:06.477Z,17.05
2022-09-04T10:53:42.215Z,16.79
2022-09-04T10:56:23.642Z,16.83
2022-09-04T10:59:15.859Z,16.68
2022-09-04T11:02:22.640Z,16.57
2022-09-04T11:05:21.354Z,16.49
2022-09-04T11:08:25.510Z,16.48
2022-09-04T11:11:23.808Z,16.33
2022-09-04T11:13:57.460Z,16.21
2022-09-04T11:16:57.312Z,15.85
2022-09-04T11:19:40.344Z,15.57
2022-09-04T11:22:45.378Z,15.84
2022-09-04T11:25:31.246Z,15.58
2022-09-04T11:28:08.209Z,15.61
2022-09-04T11:31:28.368Z,16.23
2022-09-04T11:34:20.226Z,16.61
2022-09-04T11:37:07.276Z,16.27
2022-09-04T11:39:47.489Z,16.93
2022-09-04T11:42:24.243Z,16.97
2022-09-04T11:45:19.147Z,16.50
2022-09-04T11:48:05.774Z,15.75
2022-09-04T11:50:42.386Z,15.57
2022-09-04T11:53:13.241Z,15.70
2022-09-04T11:56:02.848Z,15.29
2022-09-04T11:58:55.572Z,15.44
2022-09-04T12:01:32.839Z,15.51
2022-09-04T12:04:23.477Z,15.56
2022-09-04T12:07:20.190Z,15.41
2022-09-04T12:10:25.584Z,15.17
2022-09-04T12:13:27.142Z,14.95
2022-09-04T12:16:33.365Z,14.66
2022-09-04T12:19:30.263Z,14.75
2022-09-04T12:21:58.277Z,14.72
2022-09-04T12:24:53.768Z,14.93
2022-09-04T12:27:27.830Z,15.12
2022-09-04T12:30:07.424Z,15.14
2022-09-04T12:32:59.747Z,15.27
2022-09-04T12:35:50.331Z,15.23
2022-09-04T12:38:36.591Z,15.24
2022-09-04T12:41:33.330Z,15.06
2022-09-04T12:44:25.533Z,14.87
2022-09-04T12:47:24.202Z,14.63
2022-09-04T12:50:02.572Z,14.93
2022-09-04T12:52:48.698Z,14.87
2022-09-04T12:56:01.156Z,14.84
2022-09-04T12:58:31.972Z,14.63
2022-09-04T13:01:13.289Z,14.67
2022-09-04T13:03:57.238Z,14.52
2022-09-04T13:06:33.996Z,14.59
2022-09-04T13:09:13.522Z,14.60
2022-09-04T13:12:10.416Z,13.98
2022-09-04T13:15:03.962Z,13.91
2022-09-04T13:17:40.618Z,14.10
2022-09-04T13:20:35.669Z,14.14
2022-09-04T13:23:26.939Z,13.85
2022-09-04T13:26:08.851Z,13.83
2022-09-04T13:28:52.154Z,14.08
2022-09-04T13:31:20.520Z,14.27
2022-09-04T13:34:00.191Z,14.20
2022-09-04T13:36:58.905Z,14.13
2022-09-04T13:40:16.635Z,14.02
2022-09-04T13:43:06.792Z,13.78
2022-09-04T13:45:42.222Z,13.76
2022-09-04T13:48:14.851Z,13.79
2022-09-04T13:51:37.998Z,13.90
2022-09-04T13:54:46.001Z,14.04
2022-09-04T13:57:22.650Z,13.74
2022-09-04T13:59:51.658Z,14.20
2022-09-04T14:02:22.089Z,14.41
2022-09-04T14:04:54.543Z,14.61
2022-09-04T14:07:29.219Z,14.80
2022-09-04T14:10:00.428Z,14.71
2022-09-04T14:12:53.656Z,14.83
2022-09-04T14:15:44.582Z,14.96
2022-09-04T14:18:21.160Z,15.00
2022-09-04T14:21:05.448Z,15.12
2022-09-04T14:23:45.396Z,15.20
2022-09-04T14:26:39.036Z,15.06
2022-09-04T14:29:18.790Z,15.14
2022-09-04T14:32:07.446Z,15.06
2022-09-04T14:34:50.557Z,15.25
2022-09-04T14:37:21.663Z,15.54
2022-09-04T14:39:54.044Z,15.91
2022-09-04T14:42:50.953Z,15.96
2022-09-04T14:45:27.036Z,15.97
2022-09-04T14:48:12.517Z,16.02
2022-09-04T14:50:49.846Z,16.09
2022-09-04T14:53:34.047Z,15.84
2022-09-04T14:56:08.175Z,15.90
2022-09-04T14:58:40.443Z,16.00
2022-09-04T15:01:17.957Z,16.13
2022-09-04T15:04:00.252Z,16.19
2022-09-04T15:07:00.979Z,16.32
2022-09-04T15:09:40.825Z,16.49
2022-09-04T15:12:25.726Z,16.77
2022-09-04T15:15:04.972Z,16.90
2022-09-04T15:17:36.153Z,17.03
2022-09-04T15:20:15.122Z,17.13
2022-09-04T15:23:14.823Z,17.19
2022-09-04T15:26:00.657Z,17.13
2022-09-04T15:28:46.167Z,17.20
2022-09-04T15:31:27.819Z,17.43
2022-09-04T15:34:05.815Z,17.62
2022-09-04T15:36:33.991Z,17.82
2022-09-04T15:39:05.859Z,17.96
2022-09-04T15:41:46.345Z,18.13
2022-09-04T15:44:38.495Z,18.42
2022-09-04T15:47:37.312Z,18.61
2022-09-04T15:50:10.896Z,18.73
2022-09-04T15:52:40.032Z,18.91
2022-09-04T15:55:28.692Z,19.15
2022-09-04T15:58:12.070Z,19.43
2022-09-04T16:00:55.556Z,19.56
2022-09-04T16:03:29.339Z,19.63
2022-09-04T16:06:34.026Z,19.95
2022-09-04T16:09:04.506Z,20.27
2022-09-04T16:11:41.509Z,20.40
2022-09-04T16:14:36.177Z,20.61
2022-09-04T16:17:44.444Z,20.62
2022-09-04T16:20:37.434Z,20.52
2022-09-04T16:23:14.001Z,20.85
2022-09-04T16:25:47.562Z,21.00
2022-09-04T16:28:26.539Z,20.97
2022-09-04T16:31:05.962Z,21.52
2022-09-04T16:33:38.573Z,21.63
2022-09-04T16:36:12.864Z,21.78
2022-09-04T16:39:01.983Z,21.97
2022-09-04T16:41:35.140Z,21.95
2022-09-04T16:44:26.587Z,22.06
2022-09-04T16:47:01.112Z,22.12
2022-09-04T16:49:58.431Z,22.78
2022-09-04T16:52:44.580Z,22.98
2022-09-04T16:55:25.594Z,23.29
2022-09-04T16:58:35.568Z,23.30
2022-09-04T17:01:33.361Z,23.67
2022-09-04T17:04:30.443Z,23.92
2022-09-04T17:07:10.362Z,23.29
2022-09-04T17:10:05.772Z,23.12
2022-09-04T17:12:36.590Z,23.42
2022-09-04T17:15:36.969Z,23.68
2022-09-04T17:18:10.976Z,24.01
2022-09-04T17:22:49.988Z,23.96
2022-09-04T17:28:57.523Z,24.30
2022-09-04T17:29:07.715Z,24.51
2022-09-04T17:29:55.417Z,24.87
2022-09-04T17:36:47.894Z,23.43
2022-09-04T17:40:46.823Z,24.40
2022-09-04T17:40:48.031Z,24.70
2022-09-04T17:42:10.776Z,24.36
2022-09-04T17:44:46.913Z,25.10
2022-09-04T17:47:27.905Z,25.40
2022-09-04T17:49:56.215Z,25.63
2022-09-04T17:52:29.978Z,25.31
2022-09-04T17:55:07.439Z,25.63
2022-09-04T17:58:05.302Z,25.67
2022-09-04T18:00:53.396Z,25.89
2022-09-04T18:04:20.620Z,25.80
2022-09-04T18:07:28.846Z,25.64
2022-09-04T18:10:25.447Z,26.36
2022-09-04T18:12:53.474Z,26.36
2022-09-04T18:15:34.024Z,24.77
2022-09-04T18:18:08.344Z,25.53
2022-09-04T18:21:05.115Z,25.86
2022-09-04T18:23:53.909Z,26.45
2022-09-04T18:26:24.962Z,26.55
2022-09-04T18:30:20.078Z,26.83
2022-09-04T18:37:08.842Z,27.97
2022-09-04T18:37:16.529Z,27.25
2022-09-04T18:38:38.700Z,26.75
2022-09-04T18:47:51.934Z,27.70
2022-09-04T18:50:36.085Z,27.82
2022-09-04T18:50:49.245Z,27.65
2022-09-04T18:53:49.850Z,28.03
2022-09-04T18:56:20.297Z,28.66
2022-09-04T18:59:07.075Z,28.42
2022-09-04T19:01:48.406Z,26.98
2022-09-04T19:04:34.827Z,26.74
2022-09-04T19:07:06.998Z,26.60
2022-09-04T19:09:57.646Z,27.15
2022-09-04T19:12:47.036Z,27.19
2022-09-04T19:15:45.542Z,27.32
2022-09-04T19:18:41.058Z,26.43
2022-09-04T19:21:35.863Z,26.98
2022-09-04T19:24:16.365Z,26.88
2022-09-04T19:26:56.307Z,26.72
2022-09-04T19:29:32.473Z,26.59
2022-09-04T19:32:30.721Z,26.60
2022-09-04T19:35:16.608Z,26.72
2022-09-04T19:43:29.123Z,26.47
2022-09-04T19:46:07.278Z,26.40
2022-09-04T19:46:26.266Z,26.36
2022-09-04T19:47:29.471Z,26.30
2022-09-04T19:53:20.110Z,26.46
2022-09-04T19:53:37.573Z,26.59
2022-09-04T19:56:13.770Z,26.79
2022-09-04T19:58:47.355Z,26.73
2022-09-04T20:01:32.314Z,26.97
2022-09-04T20:04:19.650Z,27.12
2022-09-04T20:06:50.287Z,26.72
2022-09-04T20:09:39.484Z,26.60
2022-09-04T20:12:34.238Z,27.08
2022-09-04T20:15:28.290Z,26.90
2022-09-04T20:18:21.798Z,27.25
2022-09-04T20:20:54.106Z,27.08
2022-09-04T20:23:35.082Z,27.45
2022-09-04T20:26:17.829Z,27.42
2022-09-04T20:29:06.211Z,26.83
2022-09-04T20:31:42.287Z,27.09
2022-09-04T20:34:19.329Z,27.03
2022-09-04T20:37:12.920Z,27.04
2022-09-04T20:39:57.512Z,27.01
2022-09-04T20:43:04.049Z,26.87
2022-09-04T20:50:50.211Z,26.87
2022-09-04T20:52:54.890Z,26.92
2022-09-04T20:52:55.062Z,26.86
2022-09-04T20:55:20.019Z,27.20
2022-09-04T21:03:14.203Z,27.11
2022-09-04T21:03:21.496Z,26.82
2022-09-04T21:04:23.778Z,26.90
2022-09-04T21:07:28.283Z,26.92
2022-09-04T21:09:59.165Z,26.63
2022-09-04T21:13:12.798Z,26.33
2022-09-04T21:15:52.874Z,26.21
2022-09-04T21:18:28.670Z,26.21
2022-09-04T21:21:06.223Z,26.59
2022-09-04T21:24:03.871Z,26.51
2022-09-04T21:26:41.658Z,26.75
2022-09-04T21:29:35.582Z,26.48
2022-09-04T21:32:23.448Z,26.31
2022-09-04T21:34:55.214Z,26.33
2022-09-04T21:37:49.095Z,26.37
2022-09-04T21:40:50.891Z,26.40
2022-09-04T21:43:38.592Z,26.56
2022-09-04T21:46:26.063Z,26.68
2022-09-04T21:49:10.988Z,26.83
2022-09-04T21:52:09.777Z,27.08
2022-09-04T21:58:41.237Z,27.05
2022-09-04T22:02:28.038Z,26.93
2022-09-04T22:02:49.684Z,26.83
2022-09-04T22:04:21.558Z,27.03
2022-09-04T22:10:49.512Z,27.28
2022-09-04T22:13:37.241Z,27.93
2022-09-04T22:13:46.217Z,27.15
2022-09-04T22:16:25.926Z,28.04
2022-09-04T22:19:16.302Z,28.00
2022-09-04T22:22:09.115Z,28.11
2022-09-04T22:24:41.184Z,28.01
2022-09-04T22:27:58.627Z,28.20
2022-09-04T22:30:49.212Z,27.76
2022-09-04T22:34:16.225Z,27.86
2022-09-04T22:37:00.823Z,27.57
2022-09-04T22:39:32.232Z,27.58
2022-09-04T22:42:13.703Z,27.65
2022-09-04T22:45:10.209Z,27.87
2022-09-04T22:47:56.858Z,27.99
2022-09-04T22:50:49.351Z,27.66
2022-09-04T22:53:42.538Z,27.80
2022-09-04T22:56:26.862Z,27.35
2022-09-04T22:59:25.828Z,27.22
2022-09-04T23:02:09.904Z,27.63
2022-09-04T23:05:00.616Z,27.70
2022-09-04T23:13:43.349Z,27.52
2022-09-04T23:13:57.219Z,27.71
2022-09-04T23:14:19.027Z,27.89
2022-09-04T23:16:52.462Z,27.78
2022-09-04T23:26:31.760Z,28.80
2022-09-04T23:26:36.848Z,28.82
2022-09-04T23:26:43.941Z,29.75
2022-09-04T23:29:15.212Z,30.35
2022-09-04T23:32:11.657Z,28.63
2022-09-04T23:35:14.371Z,29.80
2022-09-04T23:38:16.854Z,28.97
2022-09-04T23:40:56.254Z,28.33
2022-09-04T23:43:48.575Z,28.84
2022-09-04T23:46:25.889Z,30.41
2022-09-04T23:49:31.074Z,30.30
2022-09-04T23:52:48.767Z,31.27
2022-09-04T23:55:48.876Z,31.40
2022-09-04T23:58:49.390Z,30.31
